Barnstable, Massachusetts
Current Conditions -  °F | °C
As of 10:56 AM on Wednesday 22 Oct 2014 (Local Time) from KHYA Reporting Station
Moderate Rain Moderate Rain  
Wind Chill: 59°   Ceiling: 500
Heat Index: 59°   Visibility: 1.2mi
Dew Point: 57°   Wind: 12mph
Humidity: 93%   Direction: 30°NNE
Pressure: 29.89"   Gusts: 20mph
Location:  41.7°N, 70.3°W
Report Text: KHYA 221456Z 03010G17KT 1 1/4SM RA BR OVC005 15/14 A2989 RMK AO2 RAB39 SLP122 P0002 60002 T01500139 58004
Loading
Personal Weather Stations






























Interactive Weather Map
Tropical Storm Tracking
New forecast layout! Learn more

10-Day Weather Forecast

Advertisements
Track Severe Weather on mobile